sensor_id;sensor_type;location;lat;lon;timestamp;pressure;altitude;pressure_sealevel;temperature;humidity
38716;BME280;24833;49.324;8.694;2023-03-11T00:00:44;98754.47;;;2.74;86.20
38716;BME280;24833;49.324;8.694;2023-03-11T00:03:15;98769.81;;;2.70;85.70
38716;BME280;24833;49.324;8.694;2023-03-11T00:05:44;98777.56;;;2.64;85.89
38716;BME280;24833;49.324;8.694;2023-03-11T00:08:16;98812.50;;;2.58;84.71
38716;BME280;24833;49.324;8.694;2023-03-11T00:10:46;98801.00;;;2.51;84.50
38716;BME280;24833;49.324;8.694;2023-03-11T00:13:15;98810.75;;;2.42;83.93
38716;BME280;24833;49.324;8.694;2023-03-11T00:15:47;98798.22;;;2.36;84.91
38716;BME280;24833;49.324;8.694;2023-03-11T00:18:15;98806.81;;;2.30;84.31
38716;BME280;24833;49.324;8.694;2023-03-11T00:20:44;98784.75;;;2.23;84.72
38716;BME280;24833;49.324;8.694;2023-03-11T00:23:13;98796.78;;;2.17;84.67
38716;BME280;24833;49.324;8.694;2023-03-11T00:25:43;98789.34;;;2.12;84.88
38716;BME280;24833;49.324;8.694;2023-03-11T00:28:12;98787.38;;;2.06;83.95
38716;BME280;24833;49.324;8.694;2023-03-11T00:30:41;98811.59;;;2.02;85.16
38716;BME280;24833;49.324;8.694;2023-03-11T00:33:11;98812.91;;;1.98;84.56
38716;BME280;24833;49.324;8.694;2023-03-11T00:35:39;98817.81;;;1.92;82.99
38716;BME280;24833;49.324;8.694;2023-03-11T00:38:12;98817.34;;;1.89;84.65
38716;BME280;24833;49.324;8.694;2023-03-11T00:40:39;98820.47;;;1.84;85.06
38716;BME280;24833;49.324;8.694;2023-03-11T00:43:06;98818.16;;;1.81;85.25
38716;BME280;24833;49.324;8.694;2023-03-11T00:45:35;98825.38;;;1.79;85.52
38716;BME280;24833;49.324;8.694;2023-03-11T00:48:03;98805.66;;;1.75;85.37
38716;BME280;24833;49.324;8.694;2023-03-11T00:50:33;98833.94;;;1.73;84.90
38716;BME280;24833;49.324;8.694;2023-03-11T00:53:02;98823.75;;;1.70;85.61
38716;BME280;24833;49.324;8.694;2023-03-11T00:55:32;98817.97;;;1.67;85.05
38716;BME280;24833;49.324;8.694;2023-03-11T00:58:05;98834.09;;;1.63;83.28
38716;BME280;24833;49.324;8.694;2023-03-11T01:00:51;98813.34;;;1.60;85.17
38716;BME280;24833;49.324;8.694;2023-03-11T01:03:18;98833.91;;;1.57;85.82
38716;BME280;24833;49.324;8.694;2023-03-11T01:05:45;98821.75;;;1.56;86.13
38716;BME280;24833;49.324;8.694;2023-03-11T01:08:12;98836.03;;;1.53;85.42
38716;BME280;24833;49.324;8.694;2023-03-11T01:10:39;98829.28;;;1.51;86.05
38716;BME280;24833;49.324;8.694;2023-03-11T01:13:06;98824.38;;;1.48;86.08
38716;BME280;24833;49.324;8.694;2023-03-11T01:15:36;98856.25;;;1.45;85.74
38716;BME280;24833;49.324;8.694;2023-03-11T01:18:04;98836.34;;;1.42;84.37
38716;BME280;24833;49.324;8.694;2023-03-11T01:20:34;98827.78;;;1.40;85.62
38716;BME280;24833;49.324;8.694;2023-03-11T01:23:02;98843.06;;;1.36;84.67
38716;BME280;24833;49.324;8.694;2023-03-11T01:25:29;98831.06;;;1.34;85.83
38716;BME280;24833;49.324;8.694;2023-03-11T01:27:58;98849.63;;;1.32;86.13
38716;BME280;24833;49.324;8.694;2023-03-11T01:30:27;98854.22;;;1.30;85.32
38716;BME280;24833;49.324;8.694;2023-03-11T01:32:56;98849.31;;;1.27;85.37
38716;BME280;24833;49.324;8.694;2023-03-11T01:35:25;98830.22;;;1.25;85.62
38716;BME280;24833;49.324;8.694;2023-03-11T01:37:53;98844.34;;;1.24;85.41
38716;BME280;24833;49.324;8.694;2023-03-11T01:40:26;98829.84;;;1.20;85.47
38716;BME280;24833;49.324;8.694;2023-03-11T01:42:56;98825.59;;;1.19;85.81
38716;BME280;24833;49.324;8.694;2023-03-11T01:48:10;98829.84;;;1.12;85.09
38716;BME280;24833;49.324;8.694;2023-03-11T01:50:44;98832.78;;;1.09;85.41
38716;BME280;24833;49.324;8.694;2023-03-11T01:53:13;98844.28;;;1.08;85.66
38716;BME280;24833;49.324;8.694;2023-03-11T01:55:43;98856.91;;;1.04;85.73
38716;BME280;24833;49.324;8.694;2023-03-11T01:58:22;98863.31;;;1.02;85.50
38716;BME280;24833;49.324;8.694;2023-03-11T02:00:50;98864.31;;;1.01;86.61
38716;BME280;24833;49.324;8.694;2023-03-11T02:03:25;98883.97;;;0.97;85.89
38716;BME280;24833;49.324;8.694;2023-03-11T02:05:55;98880.69;;;0.95;85.24
38716;BME280;24833;49.324;8.694;2023-03-11T02:08:23;98881.81;;;0.92;85.96
38716;BME280;24833;49.324;8.694;2023-03-11T02:10:51;98884.59;;;0.91;86.02
38716;BME280;24833;49.324;8.694;2023-03-11T02:13:19;98897.09;;;0.89;85.67
38716;BME280;24833;49.324;8.694;2023-03-11T02:15:46;98889.38;;;0.87;86.03
38716;BME280;24833;49.324;8.694;2023-03-11T02:18:14;98885.22;;;0.85;85.97
38716;BME280;24833;49.324;8.694;2023-03-11T02:29:28;98861.53;;;0.76;86.29
38716;BME280;24833;49.324;8.694;2023-03-11T02:31:57;98859.22;;;0.73;86.69
38716;BME280;24833;49.324;8.694;2023-03-11T02:34:29;98855.94;;;0.71;86.08
38716;BME280;24833;49.324;8.694;2023-03-11T02:36:57;98857.72;;;0.71;86.85
38716;BME280;24833;49.324;8.694;2023-03-11T02:42:04;98868.56;;;0.68;86.22
38716;BME280;24833;49.324;8.694;2023-03-11T02:44:33;98873.00;;;0.67;86.14
38716;BME280;24833;49.324;8.694;2023-03-11T02:47:01;98869.69;;;0.65;86.43
38716;BME280;24833;49.324;8.694;2023-03-11T02:49:29;98877.72;;;0.64;86.20
38716;BME280;24833;49.324;8.694;2023-03-11T02:51:56;98875.91;;;0.64;86.47
38716;BME280;24833;49.324;8.694;2023-03-11T02:54:24;98882.97;;;0.64;86.73
38716;BME280;24833;49.324;8.694;2023-03-11T02:56:51;98881.31;;;0.63;86.46
38716;BME280;24833;49.324;8.694;2023-03-11T02:59:18;98877.19;;;0.60;86.08
38716;BME280;24833;49.324;8.694;2023-03-11T03:01:45;98888.53;;;0.61;86.60
38716;BME280;24833;49.324;8.694;2023-03-11T03:04:12;98881.63;;;0.60;86.90
38716;BME280;24833;49.324;8.694;2023-03-11T03:06:39;98884.41;;;0.58;86.54
38716;BME280;24833;49.324;8.694;2023-03-11T03:09:06;98881.13;;;0.56;86.50
38716;BME280;24833;49.324;8.694;2023-03-11T03:11:33;98883.09;;;0.54;86.55
38716;BME280;24833;49.324;8.694;2023-03-11T03:14:00;98894.41;;;0.54;86.94
38716;BME280;24833;49.324;8.694;2023-03-11T03:16:27;98885.84;;;0.52;86.58
38716;BME280;24833;49.324;8.694;2023-03-11T03:18:54;98886.00;;;0.51;87.01
38716;BME280;24833;49.324;8.694;2023-03-11T03:21:21;98890.59;;;0.49;86.62
38716;BME280;24833;49.324;8.694;2023-03-11T03:23:48;98893.38;;;0.47;86.42
38716;BME280;24833;49.324;8.694;2023-03-11T03:26:15;98906.63;;;0.46;86.49
38716;BME280;24833;49.324;8.694;2023-03-11T03:28:46;98906.13;;;0.42;86.54
38716;BME280;24833;49.324;8.694;2023-03-11T03:31:13;98909.75;;;0.41;86.96
38716;BME280;24833;49.324;8.694;2023-03-11T03:33:44;98906.41;;;0.39;84.75
38716;BME280;24833;49.324;8.694;2023-03-11T03:36:13;98918.06;;;0.37;86.15
38716;BME280;24833;49.324;8.694;2023-03-11T03:38:44;98915.59;;;0.35;86.75
38716;BME280;24833;49.324;8.694;2023-03-11T03:41:15;98918.50;;;0.32;86.19
38716;BME280;24833;49.324;8.694;2023-03-11T03:43:43;98929.00;;;0.32;86.84
38716;BME280;24833;49.324;8.694;2023-03-11T03:46:11;98930.16;;;0.30;86.72
38716;BME280;24833;49.324;8.694;2023-03-11T03:48:42;98925.88;;;0.29;86.63
38716;BME280;24833;49.324;8.694;2023-03-11T03:51:12;98927.81;;;0.26;86.65
38716;BME280;24833;49.324;8.694;2023-03-11T03:53:47;98931.41;;;0.25;87.14
38716;BME280;24833;49.324;8.694;2023-03-11T03:56:17;98929.75;;;0.24;86.85
38716;BME280;24833;49.324;8.694;2023-03-11T03:58:44;98929.09;;;0.22;87.05
38716;BME280;24833;49.324;8.694;2023-03-11T04:01:11;98932.72;;;0.21;87.33
38716;BME280;24833;49.324;8.694;2023-03-11T04:03:40;98933.81;;;0.19;87.12
38716;BME280;24833;49.324;8.694;2023-03-11T04:06:28;98942.81;;;0.16;86.02
38716;BME280;24833;49.324;8.694;2023-03-11T04:09:02;98947.41;;;0.14;86.99
38716;BME280;24833;49.324;8.694;2023-03-11T04:11:32;98946.72;;;0.12;87.02
38716;BME280;24833;49.324;8.694;2023-03-11T04:14:00;98940.13;;;0.08;86.97
38716;BME280;24833;49.324;8.694;2023-03-11T04:16:29;98935.16;;;0.05;87.03
38716;BME280;24833;49.324;8.694;2023-03-11T04:19:02;98944.16;;;0.03;86.48
38716;BME280;24833;49.324;8.694;2023-03-11T04:21:32;98953.19;;;0.00;87.09
38716;BME280;24833;49.324;8.694;2023-03-11T04:24:00;98959.53;;;-0.03;86.82
38716;BME280;24833;49.324;8.694;2023-03-11T04:26:31;98960.66;;;-0.05;87.00
38716;BME280;24833;49.324;8.694;2023-03-11T04:28:59;98965.19;;;-0.07;86.81
38716;BME280;24833;49.324;8.694;2023-03-11T04:31:29;98964.53;;;-0.09;86.83
38716;BME280;24833;49.324;8.694;2023-03-11T04:33:59;98966.50;;;-0.11;86.78
38716;BME280;24833;49.324;8.694;2023-03-11T04:36:26;98964.03;;;-0.13;87.34
38716;BME280;24833;49.324;8.694;2023-03-11T04:38:56;98961.53;;;-0.14;86.97
38716;BME280;24833;49.324;8.694;2023-03-11T04:41:25;98968.44;;;-0.13;87.11
38716;BME280;24833;49.324;8.694;2023-03-11T04:43:53;98963.19;;;-0.13;87.37
38716;BME280;24833;49.324;8.694;2023-03-11T04:46:20;98967.75;;;-0.15;87.22
38716;BME280;24833;49.324;8.694;2023-03-11T04:48:47;98965.13;;;-0.15;87.40
38716;BME280;24833;49.324;8.694;2023-03-11T04:51:14;98953.00;;;-0.16;87.60
38716;BME280;24833;49.324;8.694;2023-03-11T04:53:41;98958.22;;;-0.16;87.21
38716;BME280;24833;49.324;8.694;2023-03-11T04:56:09;98955.59;;;-0.16;87.34
38716;BME280;24833;49.324;8.694;2023-03-11T04:58:37;98963.47;;;-0.16;87.48
38716;BME280;24833;49.324;8.694;2023-03-11T05:01:05;98967.06;;;-0.17;87.51
38716;BME280;24833;49.324;8.694;2023-03-11T05:03:32;98987.09;;;-0.16;87.59
38716;BME280;24833;49.324;8.694;2023-03-11T05:05:59;98983.50;;;-0.15;87.49
38716;BME280;24833;49.324;8.694;2023-03-11T05:08:26;98984.47;;;-0.16;87.37
38716;BME280;24833;49.324;8.694;2023-03-11T05:10:53;98987.91;;;-0.16;87.42
38716;BME280;24833;49.324;8.694;2023-03-11T05:13:21;98980.88;;;-0.15;87.52
38716;BME280;24833;49.324;8.694;2023-03-11T05:15:50;98982.81;;;-0.17;87.83
38716;BME280;24833;49.324;8.694;2023-03-11T05:18:17;98989.03;;;-0.18;87.74
38716;BME280;24833;49.324;8.694;2023-03-11T05:20:47;98990.84;;;-0.19;87.13
38716;BME280;24833;49.324;8.694;2023-03-11T05:23:20;98984.06;;;-0.21;87.59
38716;BME280;24833;49.324;8.694;2023-03-11T05:25:47;98987.66;;;-0.22;87.76
38716;BME280;24833;49.324;8.694;2023-03-11T05:28:14;98997.50;;;-0.24;87.52
38716;BME280;24833;49.324;8.694;2023-03-11T05:30:48;98996.81;;;-0.26;87.72
38716;BME280;24833;49.324;8.694;2023-03-11T05:33:17;98993.66;;;-0.30;87.37
38716;BME280;24833;49.324;8.694;2023-03-11T05:35:44;99005.28;;;-0.33;87.57
38716;BME280;24833;49.324;8.694;2023-03-11T05:38:12;99011.59;;;-0.35;87.11
38716;BME280;24833;49.324;8.694;2023-03-11T05:40:42;99012.88;;;-0.39;87.24
38716;BME280;24833;49.324;8.694;2023-03-11T05:43:09;99012.19;;;-0.41;87.43
38716;BME280;24833;49.324;8.694;2023-03-11T05:45:39;99014.13;;;-0.43;86.77
38716;BME280;24833;49.324;8.694;2023-03-11T05:48:06;99010.97;;;-0.47;87.22
38716;BME280;24833;49.324;8.694;2023-03-11T05:50:36;99013.88;;;-0.50;87.31
38716;BME280;24833;49.324;8.694;2023-03-11T05:53:04;99018.47;;;-0.52;87.24
38716;BME280;24833;49.324;8.694;2023-03-11T05:55:31;99016.94;;;-0.55;87.96
38716;BME280;24833;49.324;8.694;2023-03-11T05:57:59;99015.44;;;-0.57;87.52
38716;BME280;24833;49.324;8.694;2023-03-11T06:00:26;99013.13;;;-0.60;87.29
38716;BME280;24833;49.324;8.694;2023-03-11T06:02:57;99010.75;;;-0.63;85.80
38716;BME280;24833;49.324;8.694;2023-03-11T06:05:24;99010.91;;;-0.65;86.92
38716;BME280;24833;49.324;8.694;2023-03-11T06:07:53;99025.09;;;-0.67;87.23
38716;BME280;24833;49.324;8.694;2023-03-11T06:10:21;99023.47;;;-0.68;87.33
38716;BME280;24833;49.324;8.694;2023-03-11T06:12:48;99021.81;;;-0.69;87.30
38716;BME280;24833;49.324;8.694;2023-03-11T06:15:21;99016.72;;;-0.71;87.44
38716;BME280;24833;49.324;8.694;2023-03-11T06:17:48;99016.56;;;-0.69;87.89
38716;BME280;24833;49.324;8.694;2023-03-11T06:20:16;99017.53;;;-0.70;87.74
38716;BME280;24833;49.324;8.694;2023-03-11T06:22:44;99016.56;;;-0.69;87.88
38716;BME280;24833;49.324;8.694;2023-03-11T06:25:13;99022.78;;;-0.70;88.13
38716;BME280;24833;49.324;8.694;2023-03-11T06:27:42;99021.13;;;-0.71;88.01
38716;BME280;24833;49.324;8.694;2023-03-11T06:30:11;99035.88;;;-0.70;88.04
38716;BME280;24833;49.324;8.694;2023-03-11T06:32:48;99046.38;;;-0.70;87.71
38716;BME280;24833;49.324;8.694;2023-03-11T06:35:15;99038.50;;;-0.70;87.95
38716;BME280;24833;49.324;8.694;2023-03-11T06:37:42;99059.47;;;-0.70;87.64
38716;BME280;24833;49.324;8.694;2023-03-11T06:40:10;99053.25;;;-0.69;88.27
38716;BME280;24833;49.324;8.694;2023-03-11T06:42:38;99064.41;;;-0.67;88.15
38716;BME280;24833;49.324;8.694;2023-03-11T06:45:08;99061.69;;;-0.66;88.45
38716;BME280;24833;49.324;8.694;2023-03-11T06:47:37;99070.38;;;-0.65;88.21
38716;BME280;24833;49.324;8.694;2023-03-11T06:50:05;99072.03;;;-0.64;88.39
38716;BME280;24833;49.324;8.694;2023-03-11T06:52:34;99078.91;;;-0.63;88.59
38716;BME280;24833;49.324;8.694;2023-03-11T06:55:01;99086.50;;;-0.60;88.41
38716;BME280;24833;49.324;8.694;2023-03-11T06:57:32;99095.03;;;-0.58;88.36
38716;BME280;24833;49.324;8.694;2023-03-11T07:00:03;99099.03;;;-0.54;88.76
38716;BME280;24833;49.324;8.694;2023-03-11T07:02:34;99096.13;;;-0.51;89.21
38716;BME280;24833;49.324;8.694;2023-03-11T07:05:02;99096.53;;;-0.46;89.20
38716;BME280;24833;49.324;8.694;2023-03-11T07:07:29;99093.34;;;-0.40;89.32
38716;BME280;24833;49.324;8.694;2023-03-11T07:09:56;99112.09;;;-0.35;89.48
38716;BME280;24833;49.324;8.694;2023-03-11T07:12:23;99113.16;;;-0.28;89.29
38716;BME280;24833;49.324;8.694;2023-03-11T07:14:58;99125.59;;;-0.20;89.49
38716;BME280;24833;49.324;8.694;2023-03-11T07:17:27;99126.94;;;-0.16;89.64
38716;BME280;24833;49.324;8.694;2023-03-11T07:19:54;99123.59;;;-0.08;89.93
38716;BME280;24833;49.324;8.694;2023-03-11T07:22:21;99123.00;;;-0.02;90.18
38716;BME280;24833;49.324;8.694;2023-03-11T07:24:48;99130.16;;;0.06;90.24
38716;BME280;24833;49.324;8.694;2023-03-11T07:27:15;99127.66;;;0.14;90.16
38716;BME280;24833;49.324;8.694;2023-03-11T07:29:43;99130.53;;;0.20;90.14
38716;BME280;24833;49.324;8.694;2023-03-11T07:32:10;99137.53;;;0.30;90.41
38716;BME280;24833;49.324;8.694;2023-03-11T07:34:37;99142.19;;;0.36;90.58
38716;BME280;24833;49.324;8.694;2023-03-11T07:37:04;99142.44;;;0.42;90.63
38716;BME280;24833;49.324;8.694;2023-03-11T07:39:31;99158.44;;;0.49;90.54
38716;BME280;24833;49.324;8.694;2023-03-11T07:41:58;99152.59;;;0.55;90.56
38716;BME280;24833;49.324;8.694;2023-03-11T07:44:33;99152.00;;;0.61;90.91
38716;BME280;24833;49.324;8.694;2023-03-11T07:47:04;99150.28;;;0.70;90.70
38716;BME280;24833;49.324;8.694;2023-03-11T07:49:32;99162.53;;;0.79;91.04
38716;BME280;24833;49.324;8.694;2023-03-11T07:51:59;99155.41;;;0.89;91.45
38716;BME280;24833;49.324;8.694;2023-03-11T07:54:26;99167.50;;;1.00;91.65
38716;BME280;24833;49.324;8.694;2023-03-11T07:56:53;99168.25;;;1.10;91.71
38716;BME280;24833;49.324;8.694;2023-03-11T07:59:20;99174.25;;;1.20;91.50
38716;BME280;24833;49.324;8.694;2023-03-11T08:01:47;99172.38;;;1.30;91.80
38716;BME280;24833;49.324;8.694;2023-03-11T08:04:14;99170.19;;;1.44;91.90
38716;BME280;24833;49.324;8.694;2023-03-11T08:06:45;99179.50;;;1.56;92.17
38716;BME280;24833;49.324;8.694;2023-03-11T08:09:13;99187.81;;;1.69;92.26
38716;BME280;24833;49.324;8.694;2023-03-11T08:11:40;99183.66;;;1.84;92.38
38716;BME280;24833;49.324;8.694;2023-03-11T08:14:07;99190.97;;;1.99;92.77
38716;BME280;24833;49.324;8.694;2023-03-11T08:16:34;99189.41;;;2.14;92.93
38716;BME280;24833;49.324;8.694;2023-03-11T08:19:02;99196.44;;;2.31;93.08
38716;BME280;24833;49.324;8.694;2023-03-11T08:21:29;99207.06;;;2.48;93.56
38716;BME280;24833;49.324;8.694;2023-03-11T08:24:00;99208.75;;;2.65;93.63
38716;BME280;24833;49.324;8.694;2023-03-11T08:26:29;99209.66;;;2.82;94.01
38716;BME280;24833;49.324;8.694;2023-03-11T08:28:57;99214.47;;;2.94;94.11
38716;BME280;24833;49.324;8.694;2023-03-11T08:31:28;99209.88;;;3.05;93.83
38716;BME280;24833;49.324;8.694;2023-03-11T08:34:08;99212.53;;;3.13;93.31
38716;BME280;24833;49.324;8.694;2023-03-11T08:36:35;99209.41;;;3.17;93.70
38716;BME280;24833;49.324;8.694;2023-03-11T08:39:02;99214.34;;;3.20;93.41
38716;BME280;24833;49.324;8.694;2023-03-11T08:41:30;99225.25;;;3.25;93.34
38716;BME280;24833;49.324;8.694;2023-03-11T08:43:57;99220.13;;;3.32;93.69
38716;BME280;24833;49.324;8.694;2023-03-11T08:46:29;99211.56;;;3.38;93.37
38716;BME280;24833;49.324;8.694;2023-03-11T08:48:57;99217.84;;;3.45;93.82
38716;BME280;24833;49.324;8.694;2023-03-11T08:51:28;99213.72;;;3.51;93.64
38716;BME280;24833;49.324;8.694;2023-03-11T08:53:56;99205.00;;;3.59;93.41
38716;BME280;24833;49.324;8.694;2023-03-11T08:56:24;99212.06;;;3.66;93.68
38716;BME280;24833;49.324;8.694;2023-03-11T08:58:51;99220.84;;;3.75;94.01
38716;BME280;24833;49.324;8.694;2023-03-11T09:01:18;99217.50;;;3.81;93.75
38716;BME280;24833;49.324;8.694;2023-03-11T09:03:46;99220.16;;;3.89;93.62
38716;BME280;24833;49.324;8.694;2023-03-11T09:06:15;99222.97;;;3.96;93.98
38716;BME280;24833;49.324;8.694;2023-03-11T09:08:43;99230.69;;;4.05;93.87
38716;BME280;24833;49.324;8.694;2023-03-11T09:11:11;99221.13;;;4.13;94.07
38716;BME280;24833;49.324;8.694;2023-03-11T09:13:40;99230.03;;;4.20;94.11
38716;BME280;24833;49.324;8.694;2023-03-11T09:16:13;99230.00;;;4.28;93.89
38716;BME280;24833;49.324;8.694;2023-03-11T09:18:41;99234.28;;;4.37;94.16
38716;BME280;24833;49.324;8.694;2023-03-11T09:21:09;99228.31;;;4.43;94.37
38716;BME280;24833;49.324;8.694;2023-03-11T09:23:36;99231.13;;;4.50;94.47
38716;BME280;24833;49.324;8.694;2023-03-11T09:26:03;99229.25;;;4.58;94.60
38716;BME280;24833;49.324;8.694;2023-03-11T09:28:31;99232.38;;;4.70;95.14
38716;BME280;24833;49.324;8.694;2023-03-11T09:30:58;99235.09;;;4.85;95.33
38716;BME280;24833;49.324;8.694;2023-03-11T09:33:25;99234.38;;;4.99;95.73
38716;BME280;24833;49.324;8.694;2023-03-11T09:35:52;99233.00;;;5.11;95.84
38716;BME280;24833;49.324;8.694;2023-03-11T09:38:19;99232.94;;;5.19;95.54
38716;BME280;24833;49.324;8.694;2023-03-11T09:41:37;99231.94;;;5.20;94.24
38716;BME280;24833;49.324;8.694;2023-03-11T09:47:38;99224.31;;;5.26;95.21
38716;BME280;24833;49.324;8.694;2023-03-11T09:50:31;99228.41;;;5.28;95.02
38716;BME280;24833;49.324;8.694;2023-03-11T09:53:09;99225.63;;;5.30;95.18
38716;BME280;24833;49.324;8.694;2023-03-11T09:55:52;99232.38;;;5.32;95.34
38716;BME280;24833;49.324;8.694;2023-03-11T09:58:40;99221.25;;;5.37;95.22
38716;BME280;24833;49.324;8.694;2023-03-11T10:01:40;99219.88;;;5.41;94.62
38716;BME280;24833;49.324;8.694;2023-03-11T10:04:23;99218.06;;;5.41;94.44
38716;BME280;24833;49.324;8.694;2023-03-11T10:06:55;99213.91;;;5.47;95.29
38716;BME280;24833;49.324;8.694;2023-03-11T12:25:22;99215.31;;;8.55;99.10
38716;BME280;24833;49.324;8.694;2023-03-11T12:31:06;99215.09;;;8.91;96.35
38716;BME280;24833;49.324;8.694;2023-03-11T12:33:46;99206.50;;;8.96;96.63
38716;BME280;24833;49.324;8.694;2023-03-11T12:36:40;99211.44;;;8.99;97.03
38716;BME280;24833;49.324;8.694;2023-03-11T12:39:23;99218.19;;;9.01;96.55
38716;BME280;24833;49.324;8.694;2023-03-11T12:42:21;99201.19;;;9.02;95.96
38716;BME280;24833;49.324;8.694;2023-03-11T12:44:49;99210.06;;;9.10;94.89
38716;BME280;24833;49.324;8.694;2023-03-11T12:47:23;99210.25;;;9.21;97.22
38716;BME280;24833;49.324;8.694;2023-03-11T12:49:53;99211.53;;;9.32;97.49
38716;BME280;24833;49.324;8.694;2023-03-11T12:52:24;99209.72;;;9.39;96.49
38716;BME280;24833;49.324;8.694;2023-03-11T12:57:35;99206.28;;;9.72;99.35
38716;BME280;24833;49.324;8.694;2023-03-11T13:00:25;99204.44;;;9.79;97.52
38716;BME280;24833;49.324;8.694;2023-03-11T13:06:37;99186.34;;;10.07;96.94
38716;BME280;24833;49.324;8.694;2023-03-11T13:09:16;99194.97;;;10.23;97.21
38716;BME280;24833;49.324;8.694;2023-03-11T13:11:46;99186.78;;;10.38;98.06
38716;BME280;24833;49.324;8.694;2023-03-11T13:16:42;99193.88;;;10.63;97.53
38716;BME280;24833;49.324;8.694;2023-03-11T13:19:33;99193.69;;;10.65;96.29
38716;BME280;24833;49.324;8.694;2023-03-11T13:22:04;99198.22;;;10.51;95.12
38716;BME280;24833;49.324;8.694;2023-03-11T13:38:40;99216.31;;;10.23;98.33
38716;BME280;24833;49.324;8.694;2023-03-11T13:41:16;99216.31;;;10.23;96.53
38716;BME280;24833;49.324;8.694;2023-03-11T13:43:49;99235.84;;;10.23;94.64
38716;BME280;24833;49.324;8.694;2023-03-11T13:46:33;99227.84;;;10.23;95.14
38716;BME280;24833;49.324;8.694;2023-03-11T13:52:21;99231.72;;;10.07;94.71
38716;BME280;24833;49.324;8.694;2023-03-11T13:57:34;99225.16;;;9.90;95.13
38716;BME280;24833;49.324;8.694;2023-03-11T14:00:16;99218.38;;;9.81;96.50
38716;BME280;24833;49.324;8.694;2023-03-11T14:02:52;99219.19;;;9.75;96.80
38716;BME280;24833;49.324;8.694;2023-03-11T14:05:29;99205.03;;;9.61;93.54
38716;BME280;24833;49.324;8.694;2023-03-11T14:08:31;99208.31;;;9.57;96.13
38716;BME280;24833;49.324;8.694;2023-03-11T14:11:01;99213.81;;;9.48;96.10
38716;BME280;24833;49.324;8.694;2023-03-11T14:13:31;99211.94;;;9.42;95.53
38716;BME280;24833;49.324;8.694;2023-03-11T14:16:26;99214.81;;;9.34;95.00
38716;BME280;24833;49.324;8.694;2023-03-11T14:19:14;99219.31;;;9.34;97.58
38716;BME280;24833;49.324;8.694;2023-03-11T14:21:47;99229.56;;;9.23;95.13
38716;BME280;24833;49.324;8.694;2023-03-11T14:24:26;99222.53;;;9.16;96.38
38716;BME280;24833;49.324;8.694;2023-03-11T14:26:56;99231.94;;;9.05;96.20
38716;BME280;24833;49.324;8.694;2023-03-11T14:29:40;99236.22;;;8.99;97.38
38716;BME280;24833;49.324;8.694;2023-03-11T14:32:29;99224.28;;;8.89;96.18
38716;BME280;24833;49.324;8.694;2023-03-11T14:34:57;99235.47;;;8.71;93.65
38716;BME280;24833;49.324;8.694;2023-03-11T14:37:33;99238.09;;;8.64;95.10
38716;BME280;24833;49.324;8.694;2023-03-11T14:40:00;99234.75;;;8.56;95.10
38716;BME280;24833;49.324;8.694;2023-03-11T14:42:33;99236.19;;;8.52;95.54
38716;BME280;24833;49.324;8.694;2023-03-11T14:45:11;99237.53;;;8.41;94.36
38716;BME280;24833;49.324;8.694;2023-03-11T14:50:32;99250.13;;;8.32;94.28
38716;BME280;24833;49.324;8.694;2023-03-11T14:53:28;99251.53;;;8.28;94.33
38716;BME280;24833;49.324;8.694;2023-03-11T14:56:03;99249.91;;;8.27;96.05
38716;BME280;24833;49.324;8.694;2023-03-11T14:58:44;99250.28;;;8.24;94.98
38716;BME280;24833;49.324;8.694;2023-03-11T15:01:25;99245.34;;;8.21;95.97
38716;BME280;24833;49.324;8.694;2023-03-11T15:04:11;99246.75;;;8.17;94.96
38716;BME280;24833;49.324;8.694;2023-03-11T15:06:42;99250.19;;;8.11;95.59
38716;BME280;24833;49.324;8.694;2023-03-11T15:09:19;99241.97;;;8.06;95.40
38716;BME280;24833;49.324;8.694;2023-03-11T15:11:58;99242.94;;;7.98;94.09
38716;BME280;24833;49.324;8.694;2023-03-11T15:14:31;99236.53;;;7.92;94.25
38716;BME280;24833;49.324;8.694;2023-03-11T15:17:21;99232.81;;;7.87;95.14
38716;BME280;24833;49.324;8.694;2023-03-11T15:22:55;99238.81;;;7.74;95.08
38716;BME280;24833;49.324;8.694;2023-03-11T15:25:30;99242.25;;;7.68;95.65
38716;BME280;24833;49.324;8.694;2023-03-11T15:27:57;99238.69;;;7.61;95.09
38716;BME280;24833;49.324;8.694;2023-03-11T15:30:30;99242.09;;;7.55;94.98
38716;BME280;24833;49.324;8.694;2023-03-11T15:32:57;99236.94;;;7.47;94.13
38716;BME280;24833;49.324;8.694;2023-03-11T15:35:29;99234.00;;;7.42;94.42
38716;BME280;24833;49.324;8.694;2023-03-11T15:38:22;99232.94;;;7.36;94.70
38716;BME280;24833;49.324;8.694;2023-03-11T15:40:59;99241.47;;;7.31;94.55
38716;BME280;24833;49.324;8.694;2023-03-11T15:43:30;99240.84;;;7.29;94.70
38716;BME280;24833;49.324;8.694;2023-03-11T15:45:59;99248.81;;;7.29;94.37
38716;BME280;24833;49.324;8.694;2023-03-11T15:48:28;99245.34;;;7.29;95.00
38716;BME280;24833;49.324;8.694;2023-03-11T15:50:58;99259.25;;;7.31;95.05
38716;BME280;24833;49.324;8.694;2023-03-11T15:53:27;99258.41;;;7.30;94.60
38716;BME280;24833;49.324;8.694;2023-03-11T15:55:59;99261.69;;;7.32;95.11
38716;BME280;24833;49.324;8.694;2023-03-11T15:58:36;99257.41;;;7.31;95.53
38716;BME280;24833;49.324;8.694;2023-03-11T16:01:04;99259.44;;;7.29;94.96
38716;BME280;24833;49.324;8.694;2023-03-11T16:03:31;99256.78;;;7.29;94.97
38716;BME280;24833;49.324;8.694;2023-03-11T16:05:58;99262.84;;;7.23;93.03
38716;BME280;24833;49.324;8.694;2023-03-11T16:08:25;99277.47;;;7.19;94.18
38716;BME280;24833;49.324;8.694;2023-03-11T16:10:52;99268.22;;;7.15;93.68
38716;BME280;24833;49.324;8.694;2023-03-11T16:13:19;99269.97;;;7.08;93.74
38716;BME280;24833;49.324;8.694;2023-03-11T16:15:46;99274.22;;;7.02;93.47
38716;BME280;24833;49.324;8.694;2023-03-11T16:18:14;99269.66;;;6.96;93.75
38716;BME280;24833;49.324;8.694;2023-03-11T16:20:49;99274.06;;;6.89;93.21
38716;BME280;24833;49.324;8.694;2023-03-11T16:23:26;99278.63;;;6.80;92.99
38716;BME280;24833;49.324;8.694;2023-03-11T16:26:01;99280.34;;;6.73;92.74
38716;BME280;24833;49.324;8.694;2023-03-11T16:28:28;99281.28;;;6.66;92.34
38716;BME280;24833;49.324;8.694;2023-03-11T16:30:56;99282.38;;;6.57;91.71
38716;BME280;24833;49.324;8.694;2023-03-11T16:33:23;99286.56;;;6.51;92.15
38716;BME280;24833;49.324;8.694;2023-03-11T16:35:50;99289.13;;;6.44;92.43
38716;BME280;24833;49.324;8.694;2023-03-11T16:38:17;99295.97;;;6.39;92.67